sensor_id;sensor_type;location;lat;lon;timestamp;pressure;altitude;pressure_sealevel;temperature;humidity
77706;BME280;66874;45.274;5.880;2024-01-15T00:01:07;98411.63;;;1.30;82.66
77706;BME280;66874;45.274;5.880;2024-01-15T00:03:32;98401.34;;;1.33;82.72
77706;BME280;66874;45.274;5.880;2024-01-15T00:05:58;98411.69;;;1.35;82.67
77706;BME280;66874;45.274;5.880;2024-01-15T00:08:23;98409.97;;;1.35;82.71
77706;BME280;66874;45.274;5.880;2024-01-15T00:10:49;98402.22;;;1.37;82.73
77706;BME280;66874;45.274;5.880;2024-01-15T00:13:14;98397.94;;;1.37;82.71
77706;BME280;66874;45.274;5.880;2024-01-15T00:15:39;98384.19;;;1.38;82.72
77706;BME280;66874;45.274;5.880;2024-01-15T00:18:05;98367.91;;;1.39;82.73
77706;BME280;66874;45.274;5.880;2024-01-15T00:20:30;98357.59;;;1.39;82.83
77706;BME280;66874;45.274;5.880;2024-01-15T00:22:56;98347.25;;;1.38;82.77
77706;BME280;66874;45.274;5.880;2024-01-15T00:25:21;98342.94;;;1.38;82.75
77706;BME280;66874;45.274;5.880;2024-01-15T00:27:47;98323.19;;;1.37;82.67
77706;BME280;66874;45.274;5.880;2024-01-15T00:30:13;98314.63;;;1.37;82.72
77706;BME280;66874;45.274;5.880;2024-01-15T00:32:38;98316.34;;;1.39;82.87
77706;BME280;66874;45.274;5.880;2024-01-15T00:35:04;98310.31;;;1.37;82.85
77706;BME280;66874;45.274;5.880;2024-01-15T00:37:29;98314.63;;;1.35;82.99
77706;BME280;66874;45.274;5.880;2024-01-15T00:39:55;98308.56;;;1.33;82.86
77706;BME280;66874;45.274;5.880;2024-01-15T00:42:20;98318.88;;;1.33;82.94
77706;BME280;66874;45.274;5.880;2024-01-15T00:44:45;98317.16;;;1.32;82.92
77706;BME280;66874;45.274;5.880;2024-01-15T00:47:11;98312.84;;;1.30;83.07
77706;BME280;66874;45.274;5.880;2024-01-15T00:49:36;98321.44;;;1.29;83.06
77706;BME280;66874;45.274;5.880;2024-01-15T00:52:02;98323.19;;;1.33;82.99
77706;BME280;66874;45.274;5.880;2024-01-15T00:54:27;98323.19;;;1.36;82.98
77706;BME280;66874;45.274;5.880;2024-01-15T00:56:52;98319.75;;;1.38;82.88
77706;BME280;66874;45.274;5.880;2024-01-15T00:59:18;98316.34;;;1.39;83.10
77706;BME280;66874;45.274;5.880;2024-01-15T01:01:46;98312.91;;;1.42;83.04
77706;BME280;66874;45.274;5.880;2024-01-15T01:04:12;98323.22;;;1.42;83.02
77706;BME280;66874;45.274;5.880;2024-01-15T01:06:37;98326.66;;;1.41;83.16
77706;BME280;66874;45.274;5.880;2024-01-15T01:09:03;98329.22;;;1.41;83.36
77706;BME280;66874;45.274;5.880;2024-01-15T01:11:28;98343.00;;;1.43;83.08
77706;BME280;66874;45.274;5.880;2024-01-15T01:13:54;98342.97;;;1.41;83.30
77706;BME280;66874;45.274;5.880;2024-01-15T01:16:19;98343.88;;;1.43;83.26
77706;BME280;66874;45.274;5.880;2024-01-15T01:18:44;98334.41;;;1.44;83.39
77706;BME280;66874;45.274;5.880;2024-01-15T01:21:10;98341.28;;;1.45;83.41
77706;BME280;66874;45.274;5.880;2024-01-15T01:23:35;98346.44;;;1.45;83.41
77706;BME280;66874;45.274;5.880;2024-01-15T01:26:00;98361.03;;;1.46;83.61
77706;BME280;66874;45.274;5.880;2024-01-15T01:28:26;98368.78;;;1.49;83.61
77706;BME280;66874;45.274;5.880;2024-01-15T01:30:51;98373.13;;;1.52;83.39
77706;BME280;66874;45.274;5.880;2024-01-15T01:33:16;98366.22;;;1.54;83.56
77706;BME280;66874;45.274;5.880;2024-01-15T01:35:42;98355.94;;;1.51;83.44
77706;BME280;66874;45.274;5.880;2024-01-15T01:38:08;98366.19;;;1.46;83.53
77706;BME280;66874;45.274;5.880;2024-01-15T01:40:34;98361.00;;;1.41;83.60
77706;BME280;66874;45.274;5.880;2024-01-15T01:42:59;98353.25;;;1.38;83.46
77706;BME280;66874;45.274;5.880;2024-01-15T01:45:24;98362.72;;;1.38;83.69
77706;BME280;66874;45.274;5.880;2024-01-15T01:47:50;98354.97;;;1.36;83.70
77706;BME280;66874;45.274;5.880;2024-01-15T01:50:16;98348.97;;;1.36;83.78
77706;BME280;66874;45.274;5.880;2024-01-15T01:52:41;98348.97;;;1.37;83.87
77706;BME280;66874;45.274;5.880;2024-01-15T01:55:09;98348.09;;;1.38;83.89
77706;BME280;66874;45.274;5.880;2024-01-15T01:57:35;98342.94;;;1.38;83.93
77706;BME280;66874;45.274;5.880;2024-01-15T02:00:02;98340.38;;;1.38;83.91
77706;BME280;66874;45.274;5.880;2024-01-15T02:02:29;98336.09;;;1.40;84.06
77706;BME280;66874;45.274;5.880;2024-01-15T02:04:54;98338.69;;;1.42;83.61
77706;BME280;66874;45.274;5.880;2024-01-15T02:07:20;98349.00;;;1.42;83.79
77706;BME280;66874;45.274;5.880;2024-01-15T02:09:46;98357.59;;;1.39;83.84
77706;BME280;66874;45.274;5.880;2024-01-15T02:12:11;98351.56;;;1.39;83.81
77706;BME280;66874;45.274;5.880;2024-01-15T02:14:37;98356.72;;;1.40;84.02
77706;BME280;66874;45.274;5.880;2024-01-15T02:17:02;98362.75;;;1.39;83.99
77706;BME280;66874;45.274;5.880;2024-01-15T02:19:28;98367.91;;;1.39;83.92
77706;BME280;66874;45.274;5.880;2024-01-15T02:21:53;98373.06;;;1.42;84.06
77706;BME280;66874;45.274;5.880;2024-01-15T02:24:18;98365.31;;;1.41;83.85
77706;BME280;66874;45.274;5.880;2024-01-15T02:26:44;98357.59;;;1.41;83.99
77706;BME280;66874;45.274;5.880;2024-01-15T02:29:10;98367.03;;;1.42;84.13
77706;BME280;66874;45.274;5.880;2024-01-15T02:31:36;98371.34;;;1.44;84.16
77706;BME280;66874;45.274;5.880;2024-01-15T02:34:02;98370.50;;;1.45;84.00
77706;BME280;66874;45.274;5.880;2024-01-15T02:36:27;98374.81;;;1.46;84.07
77706;BME280;66874;45.274;5.880;2024-01-15T02:38:52;98356.75;;;1.45;84.17
77706;BME280;66874;45.274;5.880;2024-01-15T02:41:18;98359.34;;;1.46;84.17
77706;BME280;66874;45.274;5.880;2024-01-15T02:43:43;98356.75;;;1.43;84.26
77706;BME280;66874;45.274;5.880;2024-01-15T02:46:09;98350.72;;;1.44;84.21
77706;BME280;66874;45.274;5.880;2024-01-15T02:48:34;98342.16;;;1.47;84.19
77706;BME280;66874;45.274;5.880;2024-01-15T02:51:02;98339.63;;;1.50;84.14
77706;BME280;66874;45.274;5.880;2024-01-15T02:53:28;98343.91;;;1.53;84.17
77706;BME280;66874;45.274;5.880;2024-01-15T02:55:53;98337.91;;;1.55;84.20
77706;BME280;66874;45.274;5.880;2024-01-15T02:58:19;98334.50;;;1.58;84.06
77706;BME280;66874;45.274;5.880;2024-01-15T03:00:44;98348.22;;;1.57;84.03
77706;BME280;66874;45.274;5.880;2024-01-15T03:03:11;98333.63;;;1.54;84.09
77706;BME280;66874;45.274;5.880;2024-01-15T03:05:37;98331.88;;;1.53;84.13
77706;BME280;66874;45.274;5.880;2024-01-15T03:08:02;98333.59;;;1.51;84.00
77706;BME280;66874;45.274;5.880;2024-01-15T03:10:27;98337.03;;;1.50;84.25
77706;BME280;66874;45.274;5.880;2024-01-15T03:12:53;98321.53;;;1.47;83.98
77706;BME280;66874;45.274;5.880;2024-01-15T03:15:18;98326.69;;;1.44;84.08
77706;BME280;66874;45.274;5.880;2024-01-15T03:17:44;98332.66;;;1.41;84.36
77706;BME280;66874;45.274;5.880;2024-01-15T03:20:10;98324.06;;;1.41;84.27
77706;BME280;66874;45.274;5.880;2024-01-15T03:22:35;98329.22;;;1.41;84.35
77706;BME280;66874;45.274;5.880;2024-01-15T03:25:01;98342.16;;;1.42;84.33
77706;BME280;66874;45.274;5.880;2024-01-15T03:27:26;98340.44;;;1.43;84.31
77706;BME280;66874;45.274;5.880;2024-01-15T03:29:52;98332.69;;;1.46;84.50
77706;BME280;66874;45.274;5.880;2024-01-15T03:32:17;98329.28;;;1.47;84.40
77706;BME280;66874;45.274;5.880;2024-01-15T03:34:42;98333.56;;;1.46;84.32
77706;BME280;66874;45.274;5.880;2024-01-15T03:37:08;98331.00;;;1.46;84.29
77706;BME280;66874;45.274;5.880;2024-01-15T03:39:33;98343.88;;;1.46;84.46
77706;BME280;66874;45.274;5.880;2024-01-15T03:41:59;98330.97;;;1.43;84.39
77706;BME280;66874;45.274;5.880;2024-01-15T03:44:24;98320.66;;;1.43;84.32
77706;BME280;66874;45.274;5.880;2024-01-15T03:46:50;98327.53;;;1.43;84.46
77706;BME280;66874;45.274;5.880;2024-01-15T03:49:15;98318.94;;;1.39;84.45
77706;BME280;66874;45.274;5.880;2024-01-15T03:51:41;98319.78;;;1.40;84.10
77706;BME280;66874;45.274;5.880;2024-01-15T03:54:06;98313.81;;;1.42;84.35
77706;BME280;66874;45.274;5.880;2024-01-15T03:56:31;98318.09;;;1.45;84.47
77706;BME280;66874;45.274;5.880;2024-01-15T03:58:57;98306.09;;;1.47;84.33
77706;BME280;66874;45.274;5.880;2024-01-15T04:01:22;98303.50;;;1.49;84.37
77706;BME280;66874;45.274;5.880;2024-01-15T04:03:47;98303.53;;;1.52;84.49
77706;BME280;66874;45.274;5.880;2024-01-15T04:06:13;98296.66;;;1.52;84.61
77706;BME280;66874;45.274;5.880;2024-01-15T04:08:38;98300.94;;;1.53;84.44
77706;BME280;66874;45.274;5.880;2024-01-15T04:11:03;98295.81;;;1.55;84.46
77706;BME280;66874;45.274;5.880;2024-01-15T04:13:32;98288.97;;;1.58;84.41
77706;BME280;66874;45.274;5.880;2024-01-15T04:15:57;98286.38;;;1.58;84.49
77706;BME280;66874;45.274;5.880;2024-01-15T04:18:23;98296.69;;;1.60;84.54
77706;BME280;66874;45.274;5.880;2024-01-15T04:20:48;98292.38;;;1.60;84.40
77706;BME280;66874;45.274;5.880;2024-01-15T04:23:13;98288.09;;;1.61;84.47
77706;BME280;66874;45.274;5.880;2024-01-15T04:25:39;98284.69;;;1.62;84.55
77706;BME280;66874;45.274;5.880;2024-01-15T04:28:08;98278.63;;;1.61;84.33
77706;BME280;66874;45.274;5.880;2024-01-15T04:30:33;98288.97;;;1.58;84.38
77706;BME280;66874;45.274;5.880;2024-01-15T04:32:59;98289.78;;;1.57;84.48
77706;BME280;66874;45.274;5.880;2024-01-15T04:35:24;98278.66;;;1.58;84.56
77706;BME280;66874;45.274;5.880;2024-01-15T04:37:49;98276.06;;;1.60;84.49
77706;BME280;66874;45.274;5.880;2024-01-15T04:40:15;98279.50;;;1.59;84.58
77706;BME280;66874;45.274;5.880;2024-01-15T04:42:40;98276.91;;;1.60;84.38
77706;BME280;66874;45.274;5.880;2024-01-15T04:45:06;98271.75;;;1.60;84.71
77706;BME280;66874;45.274;5.880;2024-01-15T04:47:31;98276.94;;;1.62;84.57
77706;BME280;66874;45.274;5.880;2024-01-15T04:49:56;98270.03;;;1.61;84.45
77706;BME280;66874;45.274;5.880;2024-01-15T04:52:22;98280.38;;;1.62;84.42
77706;BME280;66874;45.274;5.880;2024-01-15T04:54:47;98283.78;;;1.61;84.45
77706;BME280;66874;45.274;5.880;2024-01-15T04:57:13;98276.91;;;1.60;84.72
77706;BME280;66874;45.274;5.880;2024-01-15T04:59:38;98270.91;;;1.61;84.83
77706;BME280;66874;45.274;5.880;2024-01-15T05:02:04;98276.06;;;1.61;84.61
77706;BME280;66874;45.274;5.880;2024-01-15T05:04:30;98276.06;;;1.63;84.76
77706;BME280;66874;45.274;5.880;2024-01-15T05:06:55;98284.69;;;1.62;84.74
77706;BME280;66874;45.274;5.880;2024-01-15T05:09:20;98276.03;;;1.57;84.75
77706;BME280;66874;45.274;5.880;2024-01-15T05:11:46;98279.47;;;1.53;85.21
77706;BME280;66874;45.274;5.880;2024-01-15T05:14:11;98287.19;;;1.53;84.96
77706;BME280;66874;45.274;5.880;2024-01-15T05:16:44;98300.09;;;1.51;84.84
77706;BME280;66874;45.274;5.880;2024-01-15T05:19:11;98298.38;;;1.50;84.78
77706;BME280;66874;45.274;5.880;2024-01-15T05:21:36;98303.53;;;1.52;84.79
77706;BME280;66874;45.274;5.880;2024-01-15T05:24:02;98297.50;;;1.53;84.96
77706;BME280;66874;45.274;5.880;2024-01-15T05:26:27;98299.22;;;1.51;84.93
77706;BME280;66874;45.274;5.880;2024-01-15T05:28:53;98300.94;;;1.53;84.65
77706;BME280;66874;45.274;5.880;2024-01-15T05:31:18;98294.94;;;1.56;84.96
77706;BME280;66874;45.274;5.880;2024-01-15T05:33:43;98285.50;;;1.59;84.58
77706;BME280;66874;45.274;5.880;2024-01-15T05:36:09;98294.13;;;1.63;84.72
77706;BME280;66874;45.274;5.880;2024-01-15T05:38:34;98288.09;;;1.64;84.66
77706;BME280;66874;45.274;5.880;2024-01-15T05:40:59;98276.06;;;1.64;84.72
77706;BME280;66874;45.274;5.880;2024-01-15T05:43:25;98274.34;;;1.65;84.68
77706;BME280;66874;45.274;5.880;2024-01-15T05:45:50;98276.09;;;1.66;84.84
77706;BME280;66874;45.274;5.880;2024-01-15T05:48:15;98275.25;;;1.65;84.79
77706;BME280;66874;45.274;5.880;2024-01-15T05:50:41;98268.38;;;1.66;84.71
77706;BME280;66874;45.274;5.880;2024-01-15T05:53:07;98270.06;;;1.67;84.84
77706;BME280;66874;45.274;5.880;2024-01-15T05:55:32;98267.50;;;1.67;84.94
77706;BME280;66874;45.274;5.880;2024-01-15T05:57:57;98256.31;;;1.68;84.86
77706;BME280;66874;45.274;5.880;2024-01-15T06:00:23;98255.44;;;1.69;84.83
77706;BME280;66874;45.274;5.880;2024-01-15T06:02:48;98248.59;;;1.69;85.01
77706;BME280;66874;45.274;5.880;2024-01-15T06:05:14;98245.16;;;1.70;84.94
77706;BME280;66874;45.274;5.880;2024-01-15T06:07:39;98242.59;;;1.72;85.09
77706;BME280;66874;45.274;5.880;2024-01-15T06:10:05;98241.75;;;1.73;85.23
77706;BME280;66874;45.274;5.880;2024-01-15T06:12:30;98241.72;;;1.70;84.96
77706;BME280;66874;45.274;5.880;2024-01-15T06:14:57;98247.75;;;1.70;85.17
77706;BME280;66874;45.274;5.880;2024-01-15T06:17:22;98243.44;;;1.71;85.03
77706;BME280;66874;45.274;5.880;2024-01-15T06:19:48;98243.44;;;1.68;85.13
77706;BME280;66874;45.274;5.880;2024-01-15T06:22:13;98248.59;;;1.66;85.14
77706;BME280;66874;45.274;5.880;2024-01-15T06:24:38;98252.91;;;1.66;85.25
77706;BME280;66874;45.274;5.880;2024-01-15T06:27:04;98251.19;;;1.74;85.16
77706;BME280;66874;45.274;5.880;2024-01-15T06:29:29;98253.78;;;1.83;85.25
77706;BME280;66874;45.274;5.880;2024-01-15T06:31:55;98252.09;;;1.91;85.06
77706;BME280;66874;45.274;5.880;2024-01-15T06:34:20;98252.09;;;1.94;84.93
77706;BME280;66874;45.274;5.880;2024-01-15T06:36:45;98248.66;;;1.97;84.88
77706;BME280;66874;45.274;5.880;2024-01-15T06:39:11;98252.09;;;1.98;84.80
77706;BME280;66874;45.274;5.880;2024-01-15T06:41:37;98255.56;;;1.97;84.93
77706;BME280;66874;45.274;5.880;2024-01-15T06:44:08;98253.81;;;1.97;85.09
77706;BME280;66874;45.274;5.880;2024-01-15T06:46:34;98252.94;;;1.95;84.96
77706;BME280;66874;45.274;5.880;2024-01-15T06:48:59;98263.28;;;1.93;84.82
77706;BME280;66874;45.274;5.880;2024-01-15T06:51:25;98254.69;;;1.94;84.80
77706;BME280;66874;45.274;5.880;2024-01-15T06:53:51;98267.59;;;2.01;84.87
77706;BME280;66874;45.274;5.880;2024-01-15T06:56:16;98264.19;;;2.08;84.69
77706;BME280;66874;45.274;5.880;2024-01-15T06:58:41;98266.78;;;2.15;84.68
77706;BME280;66874;45.274;5.880;2024-01-15T07:01:07;98265.88;;;2.18;84.98
77706;BME280;66874;45.274;5.880;2024-01-15T07:03:33;98271.06;;;2.19;84.69
77706;BME280;66874;45.274;5.880;2024-01-15T07:05:58;98274.50;;;2.15;84.64
77706;BME280;66874;45.274;5.880;2024-01-15T07:08:23;98277.91;;;2.14;84.74
77706;BME280;66874;45.274;5.880;2024-01-15T07:10:49;98280.50;;;2.11;84.82
77706;BME280;66874;45.274;5.880;2024-01-15T07:13:14;98284.78;;;2.11;84.75
77706;BME280;66874;45.274;5.880;2024-01-15T07:15:39;98284.81;;;2.09;84.94
77706;BME280;66874;45.274;5.880;2024-01-15T07:18:05;98277.06;;;2.09;84.87
77706;BME280;66874;45.274;5.880;2024-01-15T07:20:30;98289.09;;;2.09;84.97
77706;BME280;66874;45.274;5.880;2024-01-15T07:22:56;98286.53;;;2.09;84.79
77706;BME280;66874;45.274;5.880;2024-01-15T07:25:22;98292.56;;;2.08;84.88
77706;BME280;66874;45.274;5.880;2024-01-15T07:27:47;98300.28;;;2.06;84.93
77706;BME280;66874;45.274;5.880;2024-01-15T07:30:13;98295.97;;;2.05;84.83
77706;BME280;66874;45.274;5.880;2024-01-15T07:32:38;98295.09;;;2.03;85.08
77706;BME280;66874;45.274;5.880;2024-01-15T07:35:04;98300.25;;;2.02;85.17
77706;BME280;66874;45.274;5.880;2024-01-15T07:37:31;98295.97;;;2.01;85.29
77706;BME280;66874;45.274;5.880;2024-01-15T07:39:56;98289.06;;;2.00;85.34
77706;BME280;66874;45.274;5.880;2024-01-15T07:42:21;98290.78;;;1.99;85.48
77706;BME280;66874;45.274;5.880;2024-01-15T07:44:47;98300.25;;;1.97;85.48
77706;BME280;66874;45.274;5.880;2024-01-15T07:47:12;98303.69;;;1.98;85.58
77706;BME280;66874;45.274;5.880;2024-01-15T07:49:38;98298.53;;;1.98;85.51
77706;BME280;66874;45.274;5.880;2024-01-15T07:52:03;98300.25;;;1.99;85.60
77706;BME280;66874;45.274;5.880;2024-01-15T07:54:30;98302.84;;;2.00;85.66
77706;BME280;66874;45.274;5.880;2024-01-15T07:57:00;98311.44;;;1.99;85.67
77706;BME280;66874;45.274;5.880;2024-01-15T07:59:26;98308.88;;;2.01;85.57
77706;BME280;66874;45.274;5.880;2024-01-15T08:01:52;98321.75;;;2.02;86.01
77706;BME280;66874;45.274;5.880;2024-01-15T08:04:19;98312.28;;;2.03;85.93
77706;BME280;66874;45.274;5.880;2024-01-15T08:06:45;98311.44;;;2.05;85.74
77706;BME280;66874;45.274;5.880;2024-01-15T08:09:10;98320.06;;;2.06;85.92
77706;BME280;66874;45.274;5.880;2024-01-15T08:11:36;98316.63;;;2.08;85.92
77706;BME280;66874;45.274;5.880;2024-01-15T08:14:04;98318.34;;;2.09;85.92
77706;BME280;66874;45.274;5.880;2024-01-15T08:16:29;98320.06;;;2.09;85.96
77706;BME280;66874;45.274;5.880;2024-01-15T08:18:55;98313.19;;;2.09;86.11
77706;BME280;66874;45.274;5.880;2024-01-15T08:21:20;98309.72;;;2.10;85.96
77706;BME280;66874;45.274;5.880;2024-01-15T08:23:45;98316.63;;;2.13;85.98
77706;BME280;66874;45.274;5.880;2024-01-15T08:26:11;98315.78;;;2.12;85.94
77706;BME280;66874;45.274;5.880;2024-01-15T08:28:36;98313.19;;;2.14;85.99
77706;BME280;66874;45.274;5.880;2024-01-15T08:31:02;98308.91;;;2.17;86.00
77706;BME280;66874;45.274;5.880;2024-01-15T08:33:28;98305.47;;;2.23;86.02
77706;BME280;66874;45.274;5.880;2024-01-15T08:35:53;98305.47;;;2.28;85.83
77706;BME280;66874;45.274;5.880;2024-01-15T08:38:19;98304.59;;;2.30;85.83
77706;BME280;66874;45.274;5.880;2024-01-15T08:40:44;98303.75;;;2.33;85.88
77706;BME280;66874;45.274;5.880;2024-01-15T08:43:10;98298.59;;;2.34;85.86
77706;BME280;66874;45.274;5.880;2024-01-15T08:45:35;98303.75;;;2.34;86.07
77706;BME280;66874;45.274;5.880;2024-01-15T08:48:00;98305.47;;;2.34;85.91
77706;BME280;66874;45.274;5.880;2024-01-15T08:50:26;98303.78;;;2.31;86.05
77706;BME280;66874;45.274;5.880;2024-01-15T08:52:51;98309.78;;;2.32;85.93
77706;BME280;66874;45.274;5.880;2024-01-15T08:55:17;98307.22;;;2.32;86.04
77706;BME280;66874;45.274;5.880;2024-01-15T08:57:42;98315.81;;;2.32;86.25
77706;BME280;66874;45.274;5.880;2024-01-15T09:00:08;98304.63;;;2.32;86.02
77706;BME280;66874;45.274;5.880;2024-01-15T09:02:34;98302.03;;;2.33;86.04
77706;BME280;66874;45.274;5.880;2024-01-15T09:05:00;98302.91;;;2.34;86.09
77706;BME280;66874;45.274;5.880;2024-01-15T09:07:26;98296.03;;;2.40;86.21
77706;BME280;66874;45.274;5.880;2024-01-15T09:09:52;98296.03;;;2.48;85.92
77706;BME280;66874;45.274;5.880;2024-01-15T09:12:18;98307.22;;;2.53;85.95
77706;BME280;66874;45.274;5.880;2024-01-15T09:14:46;98294.31;;;2.56;85.97
77706;BME280;66874;45.274;5.880;2024-01-15T09:17:11;98293.44;;;2.57;85.66
77706;BME280;66874;45.274;5.880;2024-01-15T09:19:36;98293.44;;;2.57;85.73
77706;BME280;66874;45.274;5.880;2024-01-15T09:22:02;98290.88;;;2.60;85.74
77706;BME280;66874;45.274;5.880;2024-01-15T09:24:27;98295.19;;;2.63;85.68
77706;BME280;66874;45.274;5.880;2024-01-15T09:26:52;98296.03;;;2.63;85.67
77706;BME280;66874;45.274;5.880;2024-01-15T09:29:18;98300.34;;;2.66;85.71
77706;BME280;66874;45.274;5.880;2024-01-15T09:31:43;98291.75;;;2.70;85.71
77706;BME280;66874;45.274;5.880;2024-01-15T09:34:09;98288.28;;;2.76;85.76
77706;BME280;66874;45.274;5.880;2024-01-15T09:36:44;98280.56;;;2.82;85.72
77706;BME280;66874;45.274;5.880;2024-01-15T09:39:09;98284.84;;;2.90;85.71
77706;BME280;66874;45.274;5.880;2024-01-15T09:41:36;98279.66;;;3.01;85.65
77706;BME280;66874;45.274;5.880;2024-01-15T09:44:03;98277.91;;;3.06;85.42
77706;BME280;66874;45.274;5.880;2024-01-15T09:46:28;98271.03;;;3.05;85.38
77706;BME280;66874;45.274;5.880;2024-01-15T09:48:54;98275.34;;;3.08;85.30
77706;BME280;66874;45.274;5.880;2024-01-15T09:51:20;98274.47;;;3.13;85.46
77706;BME280;66874;45.274;5.880;2024-01-15T09:53:46;98264.97;;;3.22;85.45
77706;BME280;66874;45.274;5.880;2024-01-15T09:56:12;98259.78;;;3.25;85.35
77706;BME280;66874;45.274;5.880;2024-01-15T09:58:38;98252.03;;;3.29;85.15
77706;BME280;66874;45.274;5.880;2024-01-15T10:01:04;98260.59;;;3.34;85.53
77706;BME280;66874;45.274;5.880;2024-01-15T10:03:30;98257.19;;;3.35;85.33
77706;BME280;66874;45.274;5.880;2024-01-15T10:05:58;98252.88;;;3.33;85.34
77706;BME280;66874;45.274;5.880;2024-01-15T10:08:25;98256.31;;;3.32;85.50
77706;BME280;66874;45.274;5.880;2024-01-15T10:10:50;98260.63;;;3.36;85.49
77706;BME280;66874;45.274;5.880;2024-01-15T10:13:16;98257.16;;;3.40;85.50
77706;BME280;66874;45.274;5.880;2024-01-15T10:15:45;98267.50;;;3.43;85.43
77706;BME280;66874;45.274;5.880;2024-01-15T10:18:11;98264.03;;;3.46;85.51
77706;BME280;66874;45.274;5.880;2024-01-15T10:20:37;98257.13;;;3.48;85.54
77706;BME280;66874;45.274;5.880;2024-01-15T10:23:03;98257.13;;;3.49;85.65
77706;BME280;66874;45.274;5.880;2024-01-15T10:25:29;98257.13;;;3.51;85.56
77706;BME280;66874;45.274;5.880;2024-01-15T10:28:03;98258.84;;;3.55;85.54
77706;BME280;66874;45.274;5.880;2024-01-15T10:30:29;98263.09;;;3.57;85.44
77706;BME280;66874;45.274;5.880;2024-01-15T10:32:58;98267.44;;;3.58;85.54
77706;BME280;66874;45.274;5.880;2024-01-15T10:35:27;98264.84;;;3.60;85.29
77706;BME280;66874;45.274;5.880;2024-01-15T10:37:52;98253.63;;;3.62;85.29
77706;BME280;66874;45.274;5.880;2024-01-15T10:40:19;98256.22;;;3.65;85.36
77706;BME280;66874;45.274;5.880;2024-01-15T10:42:44;98252.72;;;3.65;85.33
77706;BME280;66874;45.274;5.880;2024-01-15T10:45:10;98255.31;;;3.70;85.33
77706;BME280;66874;45.274;5.880;2024-01-15T10:47:35;98245.81;;;3.68;85.38
77706;BME280;66874;45.274;5.880;2024-01-15T10:50:02;98238.06;;;3.68;85.27
77706;BME280;66874;45.274;5.880;2024-01-15T10:52:28;98244.97;;;3.70;85.30
77706;BME280;66874;45.274;5.880;2024-01-15T10:54:54;98243.22;;;3.68;85.10
77706;BME280;66874;45.274;5.880;2024-01-15T10:57:21;98241.53;;;3.64;85.37
77706;BME280;66874;45.274;5.880;2024-01-15T10:59:47;98231.19;;;3.66;85.56
77706;BME280;66874;45.274;5.880;2024-01-15T11:02:14;98224.28;;;3.65;85.45
77706;BME280;66874;45.274;5.880;2024-01-15T11:04:40;98231.19;;;3.69;85.58
77706;BME280;66874;45.274;5.880;2024-01-15T11:07:05;98223.38;;;3.75;85.27
77706;BME280;66874;45.274;5.880;2024-01-15T11:09:31;98219.91;;;3.79;85.38
77706;BME280;66874;45.274;5.880;2024-01-15T11:12:07;98218.97;;;3.88;85.30
77706;BME280;66874;45.274;5.880;2024-01-15T11:15:00;98222.41;;;3.95;85.29
77706;BME280;66874;45.274;5.880;2024-01-15T11:17:22;98211.13;;;4.03;85.26
77706;BME280;66874;45.274;5.880;2024-01-15T11:19:48;98205.88;;;4.15;85.07
77706;BME280;66874;45.274;5.880;2024-01-15T11:24:55;98205.81;;;4.22;84.97
77706;BME280;66874;45.274;5.880;2024-01-15T11:27:39;98186.00;;;4.21;84.98
77706;BME280;66874;45.274;5.880;2024-01-15T11:30:08;98183.38;;;4.24;85.22
77706;BME280;66874;45.274;5.880;2024-01-15T11:32:36;98179.00;;;4.30;85.10
77706;BME280;66874;45.274;5.880;2024-01-15T11:35:03;98178.09;;;4.36;85.00
77706;BME280;66874;45.274;5.880;2024-01-15T11:40:18;98158.06;;;4.55;85.10
77706;BME280;66874;45.274;5.880;2024-01-15T11:42:47;98154.56;;;4.60;85.16
77706;BME280;66874;45.274;5.880;2024-01-15T11:45:18;98154.56;;;4.59;84.95
77706;BME280;66874;45.274;5.880;2024-01-15T11:50:22;98149.53;;;4.47;85.23
77706;BME280;66874;45.274;5.880;2024-01-15T11:52:59;98146.97;;;4.44;85.07
77706;BME280;66874;45.274;5.880;2024-01-15T11:55:33;98150.38;;;4.46;85.25
77706;BME280;66874;45.274;5.880;2024-01-15T11:58:01;98154.66;;;4.51;85.17
77706;BME280;66874;45.274;5.880;2024-01-15T12:00:27;98163.25;;;4.53;85.17
77706;BME280;66874;45.274;5.880;2024-01-15T12:02:53;98163.28;;;4.52;85.05
77706;BME280;66874;45.274;5.880;2024-01-15T12:05:20;98176.25;;;4.49;85.18
77706;BME280;66874;45.274;5.880;2024-01-15T12:07:48;98170.28;;;4.40;85.24
77706;BME280;66874;45.274;5.880;2024-01-15T12:15:09;98183.44;;;4.16;85.89
77706;BME280;66874;45.274;5.880;2024-01-15T12:17:35;98197.25;;;4.13;85.74
77706;BME280;66874;45.274;5.880;2024-01-15T12:20:00;98188.69;;;4.08;85.93
77706;BME280;66874;45.274;5.880;2024-01-15T12:22:25;98187.81;;;4.08;85.98
77706;BME280;66874;45.274;5.880;2024-01-15T12:24:53;98180.06;;;4.08;86.04
77706;BME280;66874;45.274;5.880;2024-01-15T12:27:18;98182.66;;;4.08;86.13
77706;BME280;66874;45.274;5.880;2024-01-15T12:29:43;98184.34;;;4.12;86.08
77706;BME280;66874;45.274;5.880;2024-01-15T12:32:09;98184.31;;;4.13;85.90
77706;BME280;66874;45.274;5.880;2024-01-15T12:34:34;98173.06;;;4.18;85.89
77706;BME280;66874;45.274;5.880;2024-01-15T12:37:00;98179.03;;;4.26;85.81
77706;BME280;66874;45.274;5.880;2024-01-15T12:39:25;98179.00;;;4.30;85.86
77706;BME280;66874;45.274;5.880;2024-01-15T12:41:51;98168.63;;;4.32;85.62
77706;BME280;66874;45.274;5.880;2024-01-15T12:44:16;98163.47;;;4.32;85.94
77706;BME280;66874;45.274;5.880;2024-01-15T12:46:42;98158.31;;;4.29;86.02
77706;BME280;66874;45.274;5.880;2024-01-15T12:49:08;98160.88;;;4.32;86.04
77706;BME280;66874;45.274;5.880;2024-01-15T12:51:36;98161.69;;;4.38;86.06
77706;BME280;66874;45.274;5.880;2024-01-15T12:54:02;98167.63;;;4.48;85.94
77706;BME280;66874;45.274;5.880;2024-01-15T12:56:28;98153.75;;;4.55;85.91
77706;BME280;66874;45.274;5.880;2024-01-15T12:58:53;98152.00;;;4.59;85.73
77706;BME280;66874;45.274;5.880;2024-01-15T13:01:19;98155.44;;;4.59;85.73
77706;BME280;66874;45.274;5.880;2024-01-15T13:03:44;98153.72;;;4.58;85.94
77706;BME280;66874;45.274;5.880;2024-01-15T13:06:09;98156.31;;;4.57;85.87
77706;BME280;66874;45.274;5.880;2024-01-15T13:08:35;98149.41;;;4.56;85.85
77706;BME280;66874;45.274;5.880;2024-01-15T13:11:00;98148.53;;;4.57;85.88
77706;BME280;66874;45.274;5.880;2024-01-15T13:13:26;98149.44;;;4.57;86.17
77706;BME280;66874;45.274;5.880;2024-01-15T13:15:52;98147.69;;;4.56;85.95